Ginga Cheetah — 3ENG3 — position and weather

sailwx.info

Track history (hours):
 
Tides and Currents Weather Stations Pressure Air Temp Water Temp Dewpoint Dewpoint Depression Visibility Wind Speed Wind Dir Waves Ship Positions

Ginga Cheetah

Last reported at 2017-Dec-12 10:11 UTC. Time now 2017-Dec-16 05:12 UTC.
Position N 22°37' E 119°53'.

Length 160 m; draft 8.4 m.

Type: Ship (hazmat cat A). MMSI: 355700000.

Date/timePositionNaut miles runAvg speedWind from/ knotsBaromVisibWave heightAir tempDewpointWater temp
2017-Dec-12 10:11N 22°37' E 119°53'1013.4
2017-Dec-12 09:25N 22°48' E 119°53'613.4
2017-Dec-12 08:59N 22°53' E 119°53'712.8
2017-Dec-12 08:26N 23°00' E 119°54'1812.4
2017-Dec-12 06:59N 23°18' E 119°54'612.5
2017-Dec-12 06:31N 23°24' E 119°55'812.7
2017-Dec-12 05:53N 23°32' E 119°56'512.9
2017-Dec-12 05:29N 23°37' E 119°57'2 0.1
2017-Dec-11 03:16N 23°37' E 119°55'1 3.8
2017-Dec-11 03:00N 23°36' E 119°54'2 3.7
2017-Dec-11 02:29N 23°34' E 119°53'2 3.0
2017-Dec-11 01:51N 23°32' E 119°53'3 7.7
2017-Dec-11 01:29N 23°30' E 119°53'3 7.0
2017-Dec-11 01:00N 23°26' E 119°52'3 4.9
2017-Dec-11 00:29N 23°24' E 119°52'2 4.7
2017-Dec-10 23:59N 23°21' E 119°52'1 1.3
2017-Dec-10 23:28N 23°21' E 119°52'10 2.5
2017-Dec-10 19:26N 23°10' E 119°51'1 3.1
2017-Dec-10 19:00N 23°09' E 119°52'2 3.5
2017-Dec-10 18:30N 23°08' E 119°53'2 3.2
2017-Dec-10 18:00N 23°06' E 119°52'1 2.9
2017-Dec-10 17:30N 23°05' E 119°52'2 4.0
2017-Dec-10 16:58N 23°03' E 119°52'2 4.1
2017-Dec-10 16:27N 23°00' E 119°52'1 1.7
2017-Dec-10 15:59N 23°00' E 119°53'2 4.7
2017-Dec-10 15:27N 23°03' E 119°53'3 5.0
2017-Dec-10 14:49N 23°06' E 119°54'2 5.1
2017-Dec-10 14:28N 23°08' E 119°54'6 5.2
2017-Dec-10 13:23N 23°13' E 119°55'1 3.6
2017-Dec-10 12:58N 23°15' E 119°54'2 1.6
2017-Dec-10 11:52N 23°16' E 119°53'1 1.5
2017-Dec-10 11:22N 23°17' E 119°53'1 1.6
2017-Dec-10 11:00N 23°17' E 119°53'1 1.6
2017-Dec-10 10:30N 23°18' E 119°52'2 4.1
2017-Dec-10 10:00N 23°20' E 119°51'3 5.3
2017-Dec-10 09:29N 23°22' E 119°50'2 5.0
2017-Dec-10 09:00N 23°25' E 119°50'2 5.0
2017-Dec-10 08:30N 23°27' E 119°49'1 1.2
2017-Dec-10 08:00N 23°26' E 119°50'1 1.3
2017-Dec-10 07:30N 23°26' E 119°50'1 1.5
2017-Dec-10 07:01N 23°26' E 119°51'1 1.7
2017-Dec-10 06:30N 23°25' E 119°51'1 1.9
2017-Dec-10 06:00N 23°24' E 119°52'1 1.9
2017-Dec-10 05:29N 23°23' E 119°53'3 5.0
2017-Dec-10 04:53N 23°20' E 119°53'4 6.5
2017-Dec-10 04:16N 23°16' E 119°53'2 5.9
2017-Dec-10 03:57N 23°14' E 119°53'3 5.7
2017-Dec-10 03:24N 23°11' E 119°53'2 5.9
2017-Dec-10 03:00N 23°09' E 119°53'3 5.4
2017-Dec-10 02:26N 23°06' E 119°53'3 4.9
2017-Dec-10 01:51N 23°03' E 119°53'2 4.5
2017-Dec-10 01:26N 23°01' E 119°53'2 4.0
2017-Dec-10 00:54N 22°59' E 119°53'2 5.9
2017-Dec-10 00:30N 22°57' E 119°52'2 4.1
2017-Dec-10 00:00N 22°55' E 119°52'2 3.2
2017-Dec-09 23:29N 22°56' E 119°53'4 5.7
2017-Dec-09 22:50N 22°60' E 119°54'2 5.8
2017-Dec-09 22:29N 23°02' E 119°54'5 5.5
2017-Dec-09 21:35N 23°07' E 119°54'1 5.1
2017-Dec-09 21:28N 23°07' E 119°54'2 5.1
2017-Dec-09 21:00N 23°10' E 119°54'3 5.6
2017-Dec-09 20:30N 23°13' E 119°53'3 4.8
2017-Dec-09 19:55N 23°15' E 119°52'2 4.8
2017-Dec-09 19:28N 23°17' E 119°52'2 4.6
2017-Dec-09 18:59N 23°20' E 119°52'2 4.3
2017-Dec-09 18:30N 23°22' E 119°52'2 4.7
2017-Dec-09 18:00N 23°24' E 119°53'2 4.5
2017-Dec-09 17:30N 23°26' E 119°53'2 3.6
2017-Dec-09 17:00N 23°28' E 119°53'2 3.3
2017-Dec-09 16:30N 23°30' E 119°53'2 3.4
2017-Dec-09 16:00N 23°31' E 119°53'2 3.6
2017-Dec-09 15:30N 23°33' E 119°53'2 4.1
2017-Dec-09 15:00N 23°35' E 119°53'2 4.3
2017-Dec-09 14:30N 23°37' E 119°53'2 4.7
2017-Dec-09 14:00N 23°40' E 119°53'3 5.3
2017-Dec-09 13:22N 23°43' E 119°53'2 5.8
2017-Dec-09 12:58N 23°45' E 119°53'3 5.9
2017-Dec-09 12:23N 23°49' E 119°53'9 2.2
2017-Dec-09 08:13N 23°40' E 119°55'1 2.2
2017-Dec-09 07:37N 23°38' E 119°55'0 2.6
2017-Dec-09 07:30N 23°38' E 119°55'9 3.4
2017-Dec-09 04:41N 23°29' E 119°55'3 6.0
2017-Dec-09 04:10N 23°26' E 119°55'1 5.9
2017-Dec-09 03:55N 23°24' E 119°54'3 5.9
2017-Dec-09 03:20N 23°21' E 119°54'3 6.2
2017-Dec-09 02:52N 23°18' E 119°54'3 6.4
2017-Dec-09 02:29N 23°15' E 119°54'4 6.4
2017-Dec-09 01:54N 23°12' E 119°54'410.3
2017-Dec-09 01:30N 23°08' E 119°54'5 9.7
2017-Dec-09 00:58N 23°03' E 119°52'2 5.1
2017-Dec-09 00:29N 23°00' E 119°52'2 4.8
2017-Dec-08 23:59N 22°58' E 119°52'2 4.4
2017-Dec-08 23:26N 22°55' E 119°51'2 3.7
2017-Dec-08 23:00N 22°54' E 119°51'2 3.4
2017-Dec-08 22:30N 22°52' E 119°51'2 3.3
2017-Dec-08 22:00N 22°50' E 119°50'2 3.6
2017-Dec-08 21:21N 22°48' E 119°50'1 3.8
2017-Dec-08 20:58N 22°47' E 119°50'2 3.9
2017-Dec-08 20:30N 22°45' E 119°50'2 3.6
2017-Dec-08 19:56N 22°43' E 119°49'1 3.0
2017-Dec-08 19:29N 22°41' E 119°49'2 4.2
2017-Dec-08 18:54N 22°39' E 119°49'3 5.9
2017-Dec-08 18:28N 22°42' E 119°49'3 5.9
2017-Dec-08 17:58N 22°45' E 119°49'4 6.0
2017-Dec-08 17:18N 22°48' E 119°50'3 5.9
2017-Dec-08 16:49N 22°51' E 119°50'3 5.5
2017-Dec-08 16:19N 22°54' E 119°50'5 4.9
2017-Dec-08 15:12N 22°60' E 119°50'1 5.1
2017-Dec-08 14:57N 23°01' E 119°50'12 6.1
2017-Dec-08 12:56N 23°13' E 119°50'4 7.3
2017-Dec-08 12:21N 23°17' E 119°50'3 7.5
2017-Dec-08 12:00N 23°20' E 119°50'4 8.0
2017-Dec-08 11:30N 23°24' E 119°50'4 8.6
2017-Dec-08 11:00N 23°28' E 119°51'5 9.2
2017-Dec-08 10:30N 23°33' E 119°51'4 8.4
2017-Dec-08 10:00N 23°37' E 119°52'4 8.5
2017-Dec-08 09:30N 23°41' E 119°52'4 0.8
2017-Dec-08 04:02N 23°39' E 119°56'5 7.2
2017-Dec-08 03:22N 23°34' E 119°56'5 7.4
2017-Dec-08 02:42N 23°29' E 119°54'1 5.8
2017-Dec-08 02:29N 23°28' E 119°54'3 7.1
2017-Dec-08 02:00N 23°25' E 119°53'1 2.8
2017-Dec-08 01:30N 23°23' E 119°53'1 1.7
2017-Dec-08 01:00N 23°23' E 119°53'1 1.3
2017-Dec-08 00:30N 23°22' E 119°53'1 1.1
2017-Dec-07 23:58N 23°21' E 119°53'1 1.2
2017-Dec-07 23:30N 23°21' E 119°53'1 1.3
2017-Dec-07 22:59N 23°20' E 119°53'1 1.1
2017-Dec-07 22:28N 23°20' E 119°53'1 1.3
2017-Dec-07 22:00N 23°19' E 119°53'1 2.0
2017-Dec-07 21:29N 23°18' E 119°53'3 5.2
2017-Dec-07 20:59N 23°15' E 119°52'1 1.4
2017-Dec-07 20:30N 23°15' E 119°52'0 0.8
2017-Dec-07 20:00N 23°14' E 119°52'1 1.4
2017-Dec-07 19:28N 23°14' E 119°52'1 1.8
2017-Dec-07 18:56N 23°13' E 119°51'1 2.3
2017-Dec-07 18:22N 23°11' E 119°51'1 1.9
2017-Dec-07 17:56N 23°11' E 119°51'1 2.0
2017-Dec-07 17:27N 23°10' E 119°51'1 2.4
2017-Dec-07 16:59N 23°09' E 119°51'10 4.0
2017-Dec-07 14:20N 22°58' E 119°51'1 4.2
2017-Dec-07 14:00N 22°57' E 119°51'2 4.1
2017-Dec-07 13:30N 22°55' E 119°51'2 3.8
2017-Dec-07 12:59N 22°53' E 119°51'2 3.3
2017-Dec-07 12:30N 22°51' E 119°51'2 3.9
2017-Dec-07 12:00N 22°49' E 119°51'5 8.8
2017-Dec-07 11:25N 22°54' E 119°51'2212.9
2017-Dec-07 09:40N 23°17' E 119°53'1 6.9
2017-Dec-07 09:28N 23°18' E 119°53'3 7.2
2017-Dec-07 09:00N 23°21' E 119°53'4 7.4
2017-Dec-07 08:30N 23°25' E 119°54'4 7.2
2017-Dec-07 08:00N 23°29' E 119°54'3 6.6
2017-Dec-07 07:28N 23°32' E 119°55'3 6.3
2017-Dec-07 07:00N 23°35' E 119°56'3 5.6
2017-Dec-07 06:30N 23°38' E 119°57'3 0.5
2017-Dec-07 00:55N 23°39' E 119°54'4 5.5
2017-Dec-07 00:08N 23°35' E 119°54'1 6.2
2017-Dec-06 23:59N 23°34' E 119°54'5 6.0
2017-Dec-06 23:09N 23°29' E 119°54'1 5.4
2017-Dec-06 23:00N 23°28' E 119°54'2 5.0
2017-Dec-06 22:30N 23°26' E 119°54'2 4.2
2017-Dec-06 22:00N 23°24' E 119°54'2 3.5
2017-Dec-06 21:30N 23°22' E 119°54'2 3.1
2017-Dec-06 21:00N 23°21' E 119°53'  
Track history (hours):
 
Tides and Currents Weather Stations Pressure Air Temp Water Temp Dewpoint Dewpoint Depression Visibility Wind Speed Wind Dir Waves Ship Positions

Ginga Cheetah

Last reported at 2017-Dec-12 10:11 UTC. Time now 2017-Dec-16 05:12 UTC.
Position N 22°37' E 119°53'.

Length 160 m; draft 8.4 m.

Type: Ship (hazmat cat A). MMSI: 355700000.

Date/timePositionNaut miles runAvg speedWind from/ knotsBaromVisibWave heightAir tempDewpointWater temp
2017-Dec-12 10:11N 22°37' E 119°53'1013.4
2017-Dec-12 09:25N 22°48' E 119°53'613.4
2017-Dec-12 08:59N 22°53' E 119°53'712.8
2017-Dec-12 08:26N 23°00' E 119°54'1812.4
2017-Dec-12 06:59N 23°18' E 119°54'612.5
2017-Dec-12 06:31N 23°24' E 119°55'812.7
2017-Dec-12 05:53N 23°32' E 119°56'512.9
2017-Dec-12 05:29N 23°37' E 119°57'2 0.1
2017-Dec-11 03:16N 23°37' E 119°55'1 3.8
2017-Dec-11 03:00N 23°36' E 119°54'2 3.7
2017-Dec-11 02:29N 23°34' E 119°53'2 3.0
2017-Dec-11 01:51N 23°32' E 119°53'3 7.7
2017-Dec-11 01:29N 23°30' E 119°53'3 7.0
2017-Dec-11 01:00N 23°26' E 119°52'3 4.9
2017-Dec-11 00:29N 23°24' E 119°52'2 4.7
2017-Dec-10 23:59N 23°21' E 119°52'1 1.3
2017-Dec-10 23:28N 23°21' E 119°52'10 2.5
2017-Dec-10 19:26N 23°10' E 119°51'1 3.1
2017-Dec-10 19:00N 23°09' E 119°52'2 3.5
2017-Dec-10 18:30N 23°08' E 119°53'2 3.2
2017-Dec-10 18:00N 23°06' E 119°52'1 2.9
2017-Dec-10 17:30N 23°05' E 119°52'2 4.0
2017-Dec-10 16:58N 23°03' E 119°52'2 4.1
2017-Dec-10 16:27N 23°00' E 119°52'1 1.7
2017-Dec-10 15:59N 23°00' E 119°53'2 4.7
2017-Dec-10 15:27N 23°03' E 119°53'3 5.0
2017-Dec-10 14:49N 23°06' E 119°54'2 5.1
2017-Dec-10 14:28N 23°08' E 119°54'6 5.2
2017-Dec-10 13:23N 23°13' E 119°55'1 3.6
2017-Dec-10 12:58N 23°15' E 119°54'2 1.6
2017-Dec-10 11:52N 23°16' E 119°53'1 1.5
2017-Dec-10 11:22N 23°17' E 119°53'1 1.6
2017-Dec-10 11:00N 23°17' E 119°53'1 1.6
2017-Dec-10 10:30N 23°18' E 119°52'2 4.1
2017-Dec-10 10:00N 23°20' E 119°51'3 5.3
2017-Dec-10 09:29N 23°22' E 119°50'2 5.0
2017-Dec-10 09:00N 23°25' E 119°50'2 5.0
2017-Dec-10 08:30N 23°27' E 119°49'1 1.2
2017-Dec-10 08:00N 23°26' E 119°50'1 1.3
2017-Dec-10 07:30N 23°26' E 119°50'1 1.5
2017-Dec-10 07:01N 23°26' E 119°51'1 1.7
2017-Dec-10 06:30N 23°25' E 119°51'1 1.9
2017-Dec-10 06:00N 23°24' E 119°52'1 1.9
2017-Dec-10 05:29N 23°23' E 119°53'3 5.0
2017-Dec-10 04:53N 23°20' E 119°53'4 6.5
2017-Dec-10 04:16N 23°16' E 119°53'2 5.9
2017-Dec-10 03:57N 23°14' E 119°53'3 5.7
2017-Dec-10 03:24N 23°11' E 119°53'2 5.9
2017-Dec-10 03:00N 23°09' E 119°53'3 5.4
2017-Dec-10 02:26N 23°06' E 119°53'3 4.9
2017-Dec-10 01:51N 23°03' E 119°53'2 4.5
2017-Dec-10 01:26N 23°01' E 119°53'2 4.0
2017-Dec-10 00:54N 22°59' E 119°53'2 5.9
2017-Dec-10 00:30N 22°57' E 119°52'2 4.1
2017-Dec-10 00:00N 22°55' E 119°52'2 3.2
2017-Dec-09 23:29N 22°56' E 119°53'4 5.7
2017-Dec-09 22:50N 22°60' E 119°54'2 5.8
2017-Dec-09 22:29N 23°02' E 119°54'5 5.5
2017-Dec-09 21:35N 23°07' E 119°54'1 5.1
2017-Dec-09 21:28N 23°07' E 119°54'2 5.1
2017-Dec-09 21:00N 23°10' E 119°54'3 5.6
2017-Dec-09 20:30N 23°13' E 119°53'3 4.8
2017-Dec-09 19:55N 23°15' E 119°52'2 4.8
2017-Dec-09 19:28N 23°17' E 119°52'2 4.6
2017-Dec-09 18:59N 23°20' E 119°52'2 4.3
2017-Dec-09 18:30N 23°22' E 119°52'2 4.7
2017-Dec-09 18:00N 23°24' E 119°53'2 4.5
2017-Dec-09 17:30N 23°26' E 119°53'2 3.6
2017-Dec-09 17:00N 23°28' E 119°53'2 3.3
2017-Dec-09 16:30N 23°30' E 119°53'2 3.4
2017-Dec-09 16:00N 23°31' E 119°53'2 3.6
2017-Dec-09 15:30N 23°33' E 119°53'2 4.1
2017-Dec-09 15:00N 23°35' E 119°53'2 4.3
2017-Dec-09 14:30N 23°37' E 119°53'2 4.7
2017-Dec-09 14:00N 23°40' E 119°53'3 5.3
2017-Dec-09 13:22N 23°43' E 119°53'2 5.8
2017-Dec-09 12:58N 23°45' E 119°53'3 5.9
2017-Dec-09 12:23N 23°49' E 119°53'9 2.2
2017-Dec-09 08:13N 23°40' E 119°55'1 2.2
2017-Dec-09 07:37N 23°38' E 119°55'0 2.6
2017-Dec-09 07:30N 23°38' E 119°55'9 3.4
2017-Dec-09 04:41N 23°29' E 119°55'3 6.0
2017-Dec-09 04:10N 23°26' E 119°55'1 5.9
2017-Dec-09 03:55N 23°24' E 119°54'3 5.9
2017-Dec-09 03:20N 23°21' E 119°54'3 6.2
2017-Dec-09 02:52N 23°18' E 119°54'3 6.4
2017-Dec-09 02:29N 23°15' E 119°54'4 6.4
2017-Dec-09 01:54N 23°12' E 119°54'410.3
2017-Dec-09 01:30N 23°08' E 119°54'5 9.7
2017-Dec-09 00:58N 23°03' E 119°52'2 5.1
2017-Dec-09 00:29N 23°00' E 119°52'2 4.8
2017-Dec-08 23:59N 22°58' E 119°52'2 4.4
2017-Dec-08 23:26N 22°55' E 119°51'2 3.7
2017-Dec-08 23:00N 22°54' E 119°51'2 3.4
2017-Dec-08 22:30N 22°52' E 119°51'2 3.3
2017-Dec-08 22:00N 22°50' E 119°50'2 3.6
2017-Dec-08 21:21N 22°48' E 119°50'1 3.8
2017-Dec-08 20:58N 22°47' E 119°50'2 3.9
2017-Dec-08 20:30N 22°45' E 119°50'2 3.6
2017-Dec-08 19:56N 22°43' E 119°49'1 3.0
2017-Dec-08 19:29N 22°41' E 119°49'2 4.2
2017-Dec-08 18:54N 22°39' E 119°49'3 5.9
2017-Dec-08 18:28N 22°42' E 119°49'3 5.9
2017-Dec-08 17:58N 22°45' E 119°49'4 6.0
2017-Dec-08 17:18N 22°48' E 119°50'3 5.9
2017-Dec-08 16:49N 22°51' E 119°50'3 5.5
2017-Dec-08 16:19N 22°54' E 119°50'5 4.9
2017-Dec-08 15:12N 22°60' E 119°50'1 5.1
2017-Dec-08 14:57N 23°01' E 119°50'12 6.1
2017-Dec-08 12:56N 23°13' E 119°50'4 7.3
2017-Dec-08 12:21N 23°17' E 119°50'3 7.5
2017-Dec-08 12:00N 23°20' E 119°50'4 8.0
2017-Dec-08 11:30N 23°24' E 119°50'4 8.6
2017-Dec-08 11:00N 23°28' E 119°51'5 9.2
2017-Dec-08 10:30N 23°33' E 119°51'4 8.4
2017-Dec-08 10:00N 23°37' E 119°52'4 8.5
2017-Dec-08 09:30N 23°41' E 119°52'4 0.8
2017-Dec-08 04:02N 23°39' E 119°56'5 7.2
2017-Dec-08 03:22N 23°34' E 119°56'5 7.4
2017-Dec-08 02:42N 23°29' E 119°54'1 5.8
2017-Dec-08 02:29N 23°28' E 119°54'3 7.1
2017-Dec-08 02:00N 23°25' E 119°53'1 2.8
2017-Dec-08 01:30N 23°23' E 119°53'1 1.7
2017-Dec-08 01:00N 23°23' E 119°53'1 1.3
2017-Dec-08 00:30N 23°22' E 119°53'1 1.1
2017-Dec-07 23:58N 23°21' E 119°53'1 1.2
2017-Dec-07 23:30N 23°21' E 119°53'1 1.3
2017-Dec-07 22:59N 23°20' E 119°53'1 1.1
2017-Dec-07 22:28N 23°20' E 119°53'1 1.3
2017-Dec-07 22:00N 23°19' E 119°53'1 2.0
2017-Dec-07 21:29N 23°18' E 119°53'3 5.2
2017-Dec-07 20:59N 23°15' E 119°52'1 1.4
2017-Dec-07 20:30N 23°15' E 119°52'0 0.8
2017-Dec-07 20:00N 23°14' E 119°52'1 1.4
2017-Dec-07 19:28N 23°14' E 119°52'1 1.8
2017-Dec-07 18:56N 23°13' E 119°51'1 2.3
2017-Dec-07 18:22N 23°11' E 119°51'1 1.9
2017-Dec-07 17:56N 23°11' E 119°51'1 2.0
2017-Dec-07 17:27N 23°10' E 119°51'1 2.4
2017-Dec-07 16:59N 23°09' E 119°51'10 4.0
2017-Dec-07 14:20N 22°58' E 119°51'1 4.2
2017-Dec-07 14:00N 22°57' E 119°51'2 4.1
2017-Dec-07 13:30N 22°55' E 119°51'2 3.8
2017-Dec-07 12:59N 22°53' E 119°51'2 3.3
2017-Dec-07 12:30N 22°51' E 119°51'2 3.9
2017-Dec-07 12:00N 22°49' E 119°51'5 8.8
2017-Dec-07 11:25N 22°54' E 119°51'2212.9
2017-Dec-07 09:40N 23°17' E 119°53'1 6.9
2017-Dec-07 09:28N 23°18' E 119°53'3 7.2
2017-Dec-07 09:00N 23°21' E 119°53'4 7.4
2017-Dec-07 08:30N 23°25' E 119°54'4 7.2
2017-Dec-07 08:00N 23°29' E 119°54'3 6.6
2017-Dec-07 07:28N 23°32' E 119°55'3 6.3
2017-Dec-07 07:00N 23°35' E 119°56'3 5.6
2017-Dec-07 06:30N 23°38' E 119°57'3 0.5
2017-Dec-07 00:55N 23°39' E 119°54'4 5.5
2017-Dec-07 00:08N 23°35' E 119°54'1 6.2
2017-Dec-06 23:59N 23°34' E 119°54'5 6.0
2017-Dec-06 23:09N 23°29' E 119°54'1 5.4
2017-Dec-06 23:00N 23°28' E 119°54'2 5.0
2017-Dec-06 22:30N 23°26' E 119°54'2 4.2
2017-Dec-06 22:00N 23°24' E 119°54'2 3.5
2017-Dec-06 21:30N 23°22' E 119°54'2 3.1
2017-Dec-06 21:00N 23°21' E 119°53'  

Dump ship's entire track history